Pembroke, Massachusetts
Current Conditions -  °F | °C
As of 3:52 AM on Friday 24 Oct 2014 (Local Time) from KPYM Reporting Station
Light Rain Light Rain  
Wind Chill: 50°   Ceiling: 600
Heat Index: 50°   Visibility: 4mi
Dew Point: 49°   Wind: 10mph
Humidity: 96%   Direction: 350°N
Pressure: 29.63"   Gusts: NA
Location:  42.07°N, 70.81°W
Report Text: KPYM 240752Z AUTO 35009KT 4SM -RA BR OVC006 10/09 A2963 RMK AO2 SLP032 P0001 T01000094
Loading
Personal Weather Stations






























Interactive Weather Map
Tropical Storm Tracking
New forecast layout! Learn more

10-Day Weather Forecast

Advertisements
Track Severe Weather on mobile